createdAt,value
2022-08-16T00:00:26.273Z,71.18
2022-08-16T00:01:10.756Z,71.18
2022-08-16T00:02:16.659Z,71.19
2022-08-16T00:03:16.887Z,71.23
2022-08-16T00:04:13.408Z,71.25
2022-08-16T00:05:10.775Z,71.30
2022-08-16T00:06:10.842Z,50
2022-08-16T00:07:10.761Z,20
2022-08-16T00:08:11.162Z,0
2022-08-16T00:09:14.285Z,0
2022-08-16T00:10:21.032Z,0
2022-08-16T00:11:15.812Z,0
2022-08-16T00:12:10.656Z,0
2022-08-16T00:13:10.711Z,0
2022-08-16T00:14:12.594Z,0
2022-08-16T00:15:17.228Z,0
2022-08-16T00:17:20.091Z,0
2022-08-16T00:17:22.977Z,0
2022-08-16T00:18:13.167Z,0
2022-08-16T00:19:10.788Z,0
2022-08-16T00:20:15.565Z,0
2022-08-16T00:21:11.804Z,20
2022-08-16T00:23:13.758Z,10
2022-08-16T00:24:32.181Z,0
2022-08-16T00:25:14.128Z,0
2022-08-16T00:26:46.780Z,0
2022-08-16T00:27:12.113Z,0
2022-08-16T00:28:10.070Z,0
2022-08-16T00:29:10.369Z,0
2022-08-16T00:30:19.364Z,0
2022-08-16T00:31:12.516Z,0
2022-08-16T00:32:11.214Z,10
2022-08-16T00:33:11.767Z,71.11
2022-08-16T00:34:18.492Z,71.14
2022-08-16T00:35:19.130Z,0
2022-08-16T00:36:12.420Z,0
2022-08-16T00:37:10.589Z,0
2022-08-16T00:38:46.852Z,0
2022-08-16T00:39:18.978Z,0
2022-08-16T00:40:38.203Z,0
2022-08-16T00:41:11.962Z,0
2022-08-16T00:42:13.817Z,0
2022-08-16T00:43:20.325Z,0
2022-08-16T00:44:13.121Z,0
2022-08-16T00:45:12.895Z,0
2022-08-16T00:46:38.366Z,0
2022-08-16T00:47:11.807Z,0
2022-08-16T00:48:44.381Z,0
2022-08-16T00:49:22.441Z,0
2022-08-16T00:50:15.372Z,0
2022-08-16T00:51:12.395Z,0
2022-08-16T00:52:33.926Z,0
2022-08-16T00:53:11.064Z,0
2022-08-16T00:54:11.531Z,0
2022-08-16T00:55:11.919Z,0
2022-08-16T00:56:11.219Z,0
2022-08-16T00:57:15.027Z,0
2022-08-16T00:59:10.760Z,0
2022-08-16T01:00:12.545Z,0
2022-08-16T01:01:12.223Z,0
2022-08-16T01:02:35.145Z,0
2022-08-16T01:03:15.074Z,0
2022-08-16T01:04:33.574Z,0
2022-08-16T01:05:14.680Z,0
2022-08-16T01:07:02.334Z,0
2022-08-16T01:07:10.701Z,0
2022-08-16T01:08:40.143Z,40
2022-08-16T01:09:11.838Z,40
2022-08-16T01:11:10.326Z,0
2022-08-16T01:12:26.576Z,0
2022-08-16T01:13:12.226Z,0
2022-08-16T01:14:10.790Z,0
2022-08-16T01:15:11.798Z,0
2022-08-16T01:16:14.078Z,0
2022-08-16T01:17:12.098Z,0
2022-08-16T01:18:43.041Z,0
2022-08-16T01:19:15.337Z,0
2022-08-16T01:20:30.173Z,0
2022-08-16T01:21:11.449Z,0
2022-08-16T01:22:53.686Z,0
2022-08-16T01:23:12.629Z,0
2022-08-16T01:24:56.952Z,0
2022-08-16T01:25:10.840Z,0
2022-08-16T01:26:38.940Z,0
2022-08-16T01:27:10.338Z,0
2022-08-16T01:28:11.187Z,0
2022-08-16T01:29:13.460Z,0
2022-08-16T01:30:26.490Z,0
2022-08-16T01:31:10.767Z,0
2022-08-16T01:32:13.962Z,0
2022-08-16T01:33:19.330Z,0
2022-08-16T01:34:24.872Z,0
2022-08-16T01:35:16.834Z,0
2022-08-16T01:36:15.489Z,0
2022-08-16T01:37:12.508Z,0
2022-08-16T01:38:12.728Z,0
2022-08-16T01:39:15.313Z,0
2022-08-16T01:40:11.314Z,0
2022-08-16T01:41:10.760Z,0
2022-08-16T01:42:16.537Z,0
2022-08-16T01:43:13.215Z,0
2022-08-16T01:44:10.161Z,0
2022-08-16T01:45:10.691Z,0
2022-08-16T01:46:43.034Z,0
2022-08-16T01:47:11.861Z,0
2022-08-16T01:48:23.847Z,0
2022-08-16T01:49:10.661Z,0
2022-08-16T01:51:17.023Z,0
2022-08-16T01:51:20.659Z,50
2022-08-16T01:52:31.724Z,71.44
2022-08-16T01:53:13.911Z,71.44
2022-08-16T01:54:10.739Z,71.39
2022-08-16T01:55:10.690Z,71.43
2022-08-16T01:56:24.501Z,71.45
2022-08-16T01:57:14.750Z,30
2022-08-16T01:58:14.309Z,0
2022-08-16T01:59:19.403Z,0
2022-08-16T02:00:29.205Z,0
2022-08-16T02:01:11.628Z,0
2022-08-16T02:02:30.907Z,0
2022-08-16T02:03:15.813Z,0
2022-08-16T02:04:15.011Z,0
2022-08-16T02:05:10.813Z,0
2022-08-16T02:06:11.783Z,0
2022-08-16T02:07:11.348Z,0
2022-08-16T02:08:36.219Z,0
2022-08-16T02:09:15.309Z,0
2022-08-16T02:10:11.654Z,0
2022-08-16T02:11:10.676Z,0
2022-08-16T02:13:00.006Z,0
2022-08-16T02:13:11.326Z,0
2022-08-16T02:14:22.124Z,0
2022-08-16T02:15:10.418Z,0
2022-08-16T02:16:22.353Z,0
2022-08-16T02:17:10.716Z,0
2022-08-16T02:18:18.703Z,0
2022-08-16T02:19:19.925Z,0
2022-08-16T02:20:15.090Z,0
2022-08-16T02:21:10.782Z,0
2022-08-16T02:22:38.674Z,0
2022-08-16T02:23:11.008Z,0
2022-08-16T02:24:40.883Z,0
2022-08-16T02:25:14.676Z,0
2022-08-16T02:26:15.796Z,0
2022-08-16T02:27:10.801Z,0
2022-08-16T02:28:12.805Z,0
2022-08-16T02:29:16.690Z,0
2022-08-16T02:30:35.568Z,0
2022-08-16T02:31:12.390Z,0
2022-08-16T02:33:09.018Z,0
2022-08-16T02:33:15.309Z,0
2022-08-16T02:34:11.232Z,0
2022-08-16T02:35:12.853Z,0
2022-08-16T02:36:49.554Z,0
2022-08-16T02:37:11.549Z,0
2022-08-16T02:38:12.736Z,0
2022-08-16T02:39:10.859Z,0
2022-08-16T02:40:11.290Z,0
2022-08-16T02:41:15.250Z,0
2022-08-16T02:42:10.639Z,0
2022-08-16T02:43:11.356Z,0
2022-08-16T02:44:10.747Z,0
2022-08-16T02:45:13.928Z,0
2022-08-16T02:46:11.418Z,0
2022-08-16T02:47:10.597Z,0
2022-08-16T02:48:34.290Z,0
2022-08-16T02:49:11.120Z,0
2022-08-16T02:51:11.588Z,0
2022-08-16T02:51:14.960Z,0
2022-08-16T02:52:24.405Z,0
2022-08-16T02:53:10.372Z,0
2022-08-16T02:54:11.908Z,0
2022-08-16T02:55:10.713Z,0
2022-08-16T02:56:14.783Z,0
2022-08-16T02:57:11.629Z,0
2022-08-16T02:58:10.801Z,0
2022-08-16T02:59:18.515Z,0
2022-08-16T03:00:38.484Z,0
2022-08-16T03:01:15.078Z,0
2022-08-16T03:02:12.508Z,0
2022-08-16T03:03:15.170Z,0
2022-08-16T03:04:56.010Z,0
2022-08-16T03:05:10.482Z,0
2022-08-16T03:06:45.786Z,0
2022-08-16T03:07:12.649Z,0
2022-08-16T03:08:54.587Z,0
2022-08-16T03:09:17.013Z,0
2022-08-16T03:10:10.951Z,0
2022-08-16T03:11:24.811Z,0
2022-08-16T03:12:11.845Z,0
2022-08-16T03:13:16.215Z,0
2022-08-16T03:14:12.006Z,0
2022-08-16T03:15:11.647Z,0
2022-08-16T03:16:42.309Z,0
2022-08-16T03:17:11.600Z,0
2022-08-16T03:18:34.812Z,0
2022-08-16T03:19:11.039Z,0
2022-08-16T03:20:15.120Z,0
2022-08-16T03:21:13.562Z,0
2022-08-16T03:22:10.435Z,0
2022-08-16T03:23:10.411Z,0
2022-08-16T03:24:33.134Z,0
2022-08-16T03:25:11.276Z,0
2022-08-16T03:26:10.974Z,0
2022-08-16T03:27:13.115Z,0
2022-08-16T03:28:10.975Z,0
2022-08-16T03:29:10.830Z,0
2022-08-16T03:30:21.362Z,0
2022-08-16T03:31:10.717Z,0
2022-08-16T03:32:13.651Z,0
2022-08-16T03:33:11.485Z,0
2022-08-16T03:34:12.295Z,0
2022-08-16T03:35:11.340Z,0
2022-08-16T03:36:34.661Z,0
2022-08-16T03:37:10.114Z,0
2022-08-16T03:38:37.862Z,0
2022-08-16T03:39:20.404Z,0
2022-08-16T03:40:11.025Z,0
2022-08-16T03:41:29.597Z,0
2022-08-16T03:42:20.456Z,0
2022-08-16T03:43:51.985Z,0
2022-08-16T03:44:44.158Z,0
2022-08-16T03:45:12.318Z,0
2022-08-16T03:46:13.612Z,0
2022-08-16T03:47:18.516Z,0
2022-08-16T03:48:10.674Z,0
2022-08-16T03:49:10.958Z,0
2022-08-16T03:50:30.210Z,0
2022-08-16T03:51:12.480Z,0
2022-08-16T03:52:10.505Z,0
2022-08-16T03:53:10.593Z,0
2022-08-16T03:54:16.551Z,0
2022-08-16T03:55:18.880Z,0
2022-08-16T03:56:20.796Z,0
2022-08-16T03:57:19.784Z,0
2022-08-16T03:58:10.512Z,0
2022-08-16T03:59:10.319Z,0
2022-08-16T04:00:11.224Z,0
2022-08-16T04:01:10.844Z,0
2022-08-16T04:02:31.268Z,0
2022-08-16T04:03:12.391Z,0
2022-08-16T04:04:17.507Z,0
2022-08-16T04:05:11.737Z,0
2022-08-16T04:06:10.207Z,0
2022-08-16T04:07:10.567Z,0
2022-08-16T04:08:27.545Z,0
2022-08-16T04:09:15.798Z,0
2022-08-16T04:10:41.600Z,0
2022-08-16T04:11:10.545Z,0
2022-08-16T04:12:52.187Z,0
2022-08-16T04:14:01.188Z,0
2022-08-16T04:14:36.584Z,0
2022-08-16T04:15:11.319Z,0
2022-08-16T04:16:26.782Z,0
2022-08-16T04:17:10.661Z,0
2022-08-16T04:18:10.604Z,0
2022-08-16T04:19:10.824Z,0
2022-08-16T04:20:33.834Z,0
2022-08-16T04:21:10.525Z,0
2022-08-16T04:22:13.090Z,0
2022-08-16T04:23:29.708Z,0
2022-08-16T04:24:11.584Z,0
2022-08-16T04:25:11.139Z,60
2022-08-16T04:27:12.671Z,0
2022-08-16T04:29:16.679Z,0
2022-08-16T04:29:25.070Z,0
2022-08-16T04:30:14.472Z,0
2022-08-16T04:31:14.300Z,0
2022-08-16T04:32:14.118Z,0
2022-08-16T04:33:10.388Z,0
2022-08-16T04:34:12.531Z,0
2022-08-16T04:35:18.789Z,0
2022-08-16T04:36:10.340Z,0
2022-08-16T04:37:10.145Z,0
2022-08-16T04:38:21.389Z,0
2022-08-16T04:39:11.287Z,0
2022-08-16T04:40:11.273Z,0
2022-08-16T04:41:10.727Z,0
2022-08-16T04:42:14.793Z,0
2022-08-16T04:43:11.168Z,0
2022-08-16T04:44:56.524Z,0
2022-08-16T04:45:10.797Z,0
2022-08-16T04:47:21.767Z,0
2022-08-16T04:47:31.617Z,0
2022-08-16T04:48:10.654Z,0
2022-08-16T04:49:10.797Z,0
2022-08-16T04:50:11.282Z,0
2022-08-16T04:51:15.869Z,0
2022-08-16T04:52:38.871Z,0
2022-08-16T04:53:11.744Z,0
2022-08-16T04:54:11.209Z,0
2022-08-16T04:55:11.754Z,0
2022-08-16T04:56:16.557Z,0
2022-08-16T04:57:10.726Z,0
2022-08-16T04:58:49.715Z,0
2022-08-16T04:59:11.949Z,0
2022-08-16T05:00:36.613Z,0
2022-08-16T05:01:12.056Z,0
2022-08-16T05:02:46.214Z,0
2022-08-16T05:03:12.094Z,0
2022-08-16T05:04:23.489Z,0
2022-08-16T05:05:20.633Z,0
2022-08-16T05:06:13.000Z,0
2022-08-16T05:07:20.457Z,0
2022-08-16T05:08:34.476Z,0
2022-08-16T05:09:10.824Z,0
2022-08-16T05:10:26.128Z,0
2022-08-16T05:11:12.199Z,0
2022-08-16T05:12:21.955Z,0
2022-08-16T05:13:18.893Z,0
2022-08-16T05:14:20.313Z,0
2022-08-16T05:15:12.433Z,0
2022-08-16T05:16:20.375Z,0
2022-08-16T05:17:11.014Z,0
2022-08-16T05:19:16.658Z,0
2022-08-16T05:21:09.444Z,0
2022-08-16T05:21:16.054Z,0
2022-08-16T05:22:21.421Z,0
2022-08-16T05:23:14.991Z,0
2022-08-16T05:24:12.633Z,0
2022-08-16T05:25:12.959Z,0
2022-08-16T05:26:23.827Z,0
2022-08-16T05:27:15.286Z,0
2022-08-16T05:28:14.289Z,0
2022-08-16T05:29:15.291Z,0
2022-08-16T05:30:39.359Z,0
2022-08-16T05:31:10.460Z,0
2022-08-16T05:32:49.508Z,0
2022-08-16T05:33:19.624Z,0
2022-08-16T05:34:23.514Z,0
2022-08-16T05:35:14.616Z,0
2022-08-16T05:37:12.765Z,0
2022-08-16T05:38:42.547Z,0
2022-08-16T05:39:13.067Z,0
2022-08-16T05:40:10.623Z,0
2022-08-16T05:41:10.498Z,0
2022-08-16T05:42:11.730Z,0
2022-08-16T05:43:15.278Z,0
2022-08-16T05:44:28.048Z,0
2022-08-16T05:45:12.182Z,0
2022-08-16T05:46:34.389Z,0
2022-08-16T05:47:15.284Z,0
2022-08-16T05:48:11.688Z,0
2022-08-16T05:49:13.325Z,0
2022-08-16T05:50:22.568Z,0
2022-08-16T05:51:11.199Z,0
2022-08-16T05:52:17.326Z,0
2022-08-16T05:53:13.586Z,0
2022-08-16T05:54:11.254Z,0
2022-08-16T05:55:12.736Z,0
2022-08-16T05:56:13.107Z,0
2022-08-16T05:57:16.987Z,0
2022-08-16T05:58:31.575Z,0
2022-08-16T05:59:11.113Z,0
2022-08-16T06:00:13.530Z,0
2022-08-16T06:01:11.582Z,0
2022-08-16T06:02:10.879Z,0
2022-08-16T06:03:16.430Z,0
2022-08-16T06:04:36.532Z,0
2022-08-16T06:05:14.658Z,0
2022-08-16T06:06:12.186Z,0
2022-08-16T06:07:27.625Z,0
2022-08-16T06:08:11.196Z,0
2022-08-16T06:09:12.546Z,0
2022-08-16T06:10:13.462Z,0
2022-08-16T06:11:16.940Z,0
2022-08-16T06:12:12.316Z,0
2022-08-16T06:13:10.429Z,0
2022-08-16T06:14:11.078Z,0
2022-08-16T06:15:14.900Z,0
2022-08-16T06:16:17.819Z,0
2022-08-16T06:17:10.916Z,0
2022-08-16T06:18:11.046Z,0
2022-08-16T06:19:12.923Z,0
2022-08-16T06:20:11.006Z,0
2022-08-16T06:21:13.322Z,0
2022-08-16T06:22:37.395Z,0
2022-08-16T06:23:21.615Z,0
2022-08-16T06:24:59.076Z,0
2022-08-16T06:25:10.506Z,0
2022-08-16T06:26:11.541Z,0
2022-08-16T06:27:11.154Z,0
2022-08-16T06:28:17.318Z,0
2022-08-16T06:29:11.101Z,0
2022-08-16T06:30:10.615Z,0
2022-08-16T06:31:15.366Z,0
2022-08-16T06:32:10.435Z,0
2022-08-16T06:33:19.923Z,0
2022-08-16T06:35:02.692Z,0
2022-08-16T06:35:10.571Z,0
2022-08-16T06:36:14.204Z,0
2022-08-16T06:37:10.934Z,0
2022-08-16T06:38:36.427Z,0
2022-08-16T06:39:13.150Z,0
2022-08-16T06:40:16.820Z,0
2022-08-16T06:41:17.794Z,0
2022-08-16T06:42:11.568Z,0
2022-08-16T06:43:11.836Z,0
2022-08-16T06:44:26.968Z,0
2022-08-16T06:45:10.559Z,0
2022-08-16T06:46:13.606Z,0
2022-08-16T06:47:12.060Z,0
2022-08-16T06:48:12.236Z,0
2022-08-16T06:49:14.253Z,0
2022-08-16T06:50:10.502Z,0
2022-08-16T06:51:10.911Z,0
2022-08-16T06:53:08.678Z,0
2022-08-16T06:53:14.974Z,0
2022-08-16T06:54:17.770Z,0
2022-08-16T06:55:16.645Z,0
2022-08-16T06:56:23.717Z,0
2022-08-16T06:57:20.314Z,0
2022-08-16T06:58:31.875Z,0
2022-08-16T06:59:12.863Z,0
2022-08-16T07:00:28.218Z,0
2022-08-16T07:01:24.612Z,0
2022-08-16T07:02:36.972Z,0
2022-08-16T07:03:32.409Z,0
2022-08-16T07:04:32.058Z,0
2022-08-16T07:05:19.320Z,0
2022-08-16T07:06:14.839Z,0
2022-08-16T07:07:14.596Z,0
2022-08-16T07:08:11.389Z,0
2022-08-16T07:09:13.475Z,0
2022-08-16T07:10:12.407Z,0
2022-08-16T07:11:12.764Z,0
2022-08-16T07:12:10.688Z,0
2022-08-16T07:13:58.591Z,0
2022-08-16T07:14:29.934Z,0
2022-08-16T07:15:20.550Z,0
2022-08-16T07:16:10.733Z,0
2022-08-16T07:17:14.569Z,0
2022-08-16T07:18:10.933Z,0
2022-08-16T07:19:12.301Z,0
2022-08-16T07:20:47.248Z,0
2022-08-16T07:21:10.860Z,0
2022-08-16T07:22:42.101Z,0
2022-08-16T07:23:17.203Z,0
2022-08-16T07:24:12.319Z,0
2022-08-16T07:25:11.919Z,0
2022-08-16T07:26:10.185Z,0
2022-08-16T07:27:12.676Z,0
2022-08-16T07:28:20.449Z,0
2022-08-16T07:29:11.325Z,0
2022-08-16T07:30:50.266Z,0
2022-08-16T07:31:17.800Z,0
2022-08-16T07:32:11.465Z,0
2022-08-16T07:33:10.801Z,0
2022-08-16T07:34:13.968Z,0
2022-08-16T07:35:11.703Z,0
2022-08-16T07:36:10.679Z,0
2022-08-16T07:37:11.000Z,0
2022-08-16T07:38:10.460Z,0
2022-08-16T07:39:11.909Z,0
2022-08-16T07:40:14.906Z,0
2022-08-16T07:41:14.130Z,0
2022-08-16T07:42:20.130Z,0
2022-08-16T07:43:10.943Z,0
2022-08-16T07:45:14.059Z,0
2022-08-16T07:46:43.564Z,0
2022-08-16T07:47:11.011Z,0
2022-08-16T07:48:15.334Z,0
2022-08-16T07:49:14.911Z,0
2022-08-16T07:50:57.382Z,0
2022-08-16T07:51:12.963Z,0
2022-08-16T07:53:11.870Z,0
2022-08-16T07:54:20.961Z,0
2022-08-16T07:55:10.966Z,0
2022-08-16T07:56:11.133Z,0
2022-08-16T07:57:14.690Z,0
2022-08-16T07:59:10.637Z,0
2022-08-16T08:00:22.028Z,0
2022-08-16T08:01:16.567Z,0
2022-08-16T08:02:20.111Z,0
2022-08-16T08:03:15.037Z,0
2022-08-16T08:04:16.229Z,0
2022-08-16T08:05:11.039Z,0
2022-08-16T08:06:14.379Z,0
2022-08-16T08:07:12.756Z,0
2022-08-16T08:08:51.565Z,0
2022-08-16T08:09:10.784Z,0
2022-08-16T08:10:18.789Z,0
2022-08-16T08:11:13.080Z,0
2022-08-16T08:12:36.072Z,0
2022-08-16T08:13:11.008Z,0
2022-08-16T08:14:11.302Z,0
2022-08-16T08:15:13.650Z,0
2022-08-16T08:16:30.560Z,0
2022-08-16T08:17:12.172Z,0
2022-08-16T08:18:34.026Z,0
2022-08-16T08:19:13.537Z,0
2022-08-16T08:20:11.628Z,0
2022-08-16T08:21:11.503Z,0
2022-08-16T08:22:19.183Z,0
2022-08-16T08:23:11.201Z,0
2022-08-16T08:24:13.045Z,0
2022-08-16T08:25:13.067Z,0
2022-08-16T08:27:10.923Z,0
2022-08-16T08:28:14.637Z,0
2022-08-16T08:29:12.194Z,0
2022-08-16T08:31:02.445Z,0
2022-08-16T08:31:11.705Z,0
2022-08-16T08:33:05.847Z,0
2022-08-16T08:33:13.233Z,0
2022-08-16T08:34:12.817Z,0
2022-08-16T08:35:12.337Z,0
2022-08-16T08:36:10.174Z,0
2022-08-16T08:37:10.334Z,0
2022-08-16T08:38:10.634Z,0
2022-08-16T08:39:16.929Z,0
2022-08-16T08:40:11.655Z,0
2022-08-16T08:41:10.926Z,0
2022-08-16T08:42:12.139Z,0
2022-08-16T08:43:18.380Z,0
2022-08-16T08:44:34.155Z,0
2022-08-16T08:45:24.299Z,0
2022-08-16T08:47:15.068Z,0
2022-08-16T08:48:10.767Z,0
2022-08-16T08:49:12.459Z,0
2022-08-16T08:50:12.837Z,0
2022-08-16T08:51:13.444Z,0
2022-08-16T08:52:12.896Z,0
2022-08-16T08:53:10.597Z,0
2022-08-16T08:54:13.202Z,0
2022-08-16T08:55:14.714Z,0
2022-08-16T08:56:28.866Z,0
2022-08-16T08:57:11.951Z,0
2022-08-16T08:58:13.994Z,0
2022-08-16T08:59:23.434Z,0
2022-08-16T09:00:17.699Z,0
2022-08-16T09:01:13.154Z,0
2022-08-16T09:02:11.390Z,0
2022-08-16T09:03:13.808Z,0
2022-08-16T09:04:10.594Z,0
2022-08-16T09:05:19.458Z,0
2022-08-16T09:06:10.462Z,0
2022-08-16T09:07:10.757Z,0
2022-08-16T09:08:17.377Z,0
2022-08-16T09:09:16.950Z,0
2022-08-16T09:10:24.637Z,0
2022-08-16T09:11:10.884Z,0
2022-08-16T09:12:36.008Z,0
2022-08-16T09:13:14.057Z,0
2022-08-16T09:14:24.795Z,0
2022-08-16T09:15:13.445Z,0
2022-08-16T09:16:13.955Z,0
2022-08-16T09:17:38.294Z,0
2022-08-16T09:18:35.323Z,0
2022-08-16T09:19:10.577Z,0
2022-08-16T09:20:11.162Z,0
2022-08-16T09:21:10.316Z,0
2022-08-16T09:22:23.652Z,0
2022-08-16T09:23:10.726Z,0
2022-08-16T09:24:35.166Z,0
2022-08-16T09:25:15.921Z,0
2022-08-16T09:26:52.567Z,0
2022-08-16T09:27:12.887Z,0
2022-08-16T09:28:13.498Z,0
2022-08-16T09:29:23.785Z,0
2022-08-16T09:30:44.407Z,0
2022-08-16T09:31:14.353Z,0
2022-08-16T09:32:11.947Z,0
2022-08-16T09:33:11.651Z,0
2022-08-16T09:34:11.675Z,0
2022-08-16T09:35:10.809Z,0
2022-08-16T09:36:31.592Z,0
2022-08-16T09:37:21.427Z,0
2022-08-16T09:38:31.386Z,0
2022-08-16T09:39:20.055Z,0
2022-08-16T09:40:43.115Z,0
2022-08-16T09:41:18.578Z,0
2022-08-16T09:42:14.140Z,0
2022-08-16T09:43:21.058Z,0
2022-08-16T09:45:22.173Z,0
2022-08-16T09:45:22.280Z,0
2022-08-16T09:46:57.509Z,0
2022-08-16T09:47:14.082Z,0
2022-08-16T09:48:10.378Z,0
2022-08-16T09:49:12.243Z,0
2022-08-16T09:50:15.240Z,0
2022-08-16T09:51:10.531Z,0
2022-08-16T09:52:13.386Z,0
2022-08-16T09:53:18.953Z,0
2022-08-16T09:54:17.132Z,0
2022-08-16T09:55:11.101Z,0
2022-08-16T09:56:14.718Z,0
2022-08-16T09:57:15.504Z,0
2022-08-16T09:58:40.498Z,0
2022-08-16T09:59:12.005Z,0
2022-08-16T10:00:48.266Z,0
2022-08-16T10:01:12.376Z,0
2022-08-16T10:02:31.461Z,0
2022-08-16T10:03:13.941Z,0
2022-08-16T10:04:52.922Z,0
2022-08-16T10:05:11.453Z,0
2022-08-16T10:06:14.844Z,0
2022-08-16T10:07:19.834Z,0
2022-08-16T10:08:30.373Z,0
2022-08-16T10:09:14.066Z,0
2022-08-16T10:10:18.863Z,0
2022-08-16T10:11:13.116Z,0
2022-08-16T10:12:22.744Z,0
2022-08-16T10:13:10.729Z,0
2022-08-16T10:14:11.166Z,0
2022-08-16T10:15:15.201Z,0
2022-08-16T10:17:14.769Z,0
2022-08-16T10:19:07.976Z,0
2022-08-16T10:19:12.786Z,0
2022-08-16T10:20:17.815Z,0
2022-08-16T10:21:12.687Z,0
2022-08-16T10:22:13.327Z,0
2022-08-16T10:23:17.181Z,0
2022-08-16T10:24:10.692Z,0
2022-08-16T10:25:12.482Z,0
2022-08-16T10:27:45.824Z,0
2022-08-16T10:27:46.241Z,0
2022-08-16T10:28:41.683Z,0
2022-08-16T10:29:11.114Z,0
2022-08-16T10:30:36.680Z,0
2022-08-16T10:31:11.737Z,0
2022-08-16T10:32:11.431Z,0
2022-08-16T10:33:10.673Z,0
2022-08-16T10:34:36.722Z,0
2022-08-16T10:35:10.809Z,0
2022-08-16T10:36:12.194Z,0
2022-08-16T10:37:11.745Z,0
2022-08-16T10:38:30.526Z,0
2022-08-16T10:39:12.214Z,0
2022-08-16T10:40:33.305Z,0
2022-08-16T10:41:10.853Z,0
2022-08-16T10:42:13.575Z,0
2022-08-16T10:43:22.154Z,0
2022-08-16T10:44:13.306Z,0
2022-08-16T10:45:13.854Z,0
2022-08-16T10:46:45.515Z,0
2022-08-16T10:47:11.748Z,0
2022-08-16T10:48:32.053Z,0
2022-08-16T10:49:11.148Z,0
2022-08-16T10:50:23.422Z,0
2022-08-16T10:51:10.866Z,0
2022-08-16T10:52:24.319Z,0
2022-08-16T10:53:11.267Z,0
2022-08-16T10:54:33.380Z,0
2022-08-16T10:55:47.446Z,0
2022-08-16T10:56:59.903Z,0
2022-08-16T10:57:15.469Z,0
2022-08-16T10:58:16.866Z,0
2022-08-16T10:59:58.515Z,0
2022-08-16T11:00:25.742Z,0
2022-08-16T11:03:06.492Z,0
2022-08-16T11:03:48.477Z,0
2022-08-16T11:05:10.600Z,0
2022-08-16T11:05:14.442Z,0
2022-08-16T11:06:15.840Z,0
2022-08-16T11:07:43.089Z,0
2022-08-16T11:08:13.818Z,0
2022-08-16T11:09:32.064Z,0
2022-08-16T11:11:15.573Z,0
2022-08-16T11:11:22.514Z,0
2022-08-16T11:12:18.159Z,0
2022-08-16T11:13:59.990Z,0
2022-08-16T11:14:15.139Z,0
2022-08-16T11:15:21.266Z,0
2022-08-16T11:17:15.027Z,0
2022-08-16T11:19:12.368Z,0
2022-08-16T11:19:17.050Z,0
2022-08-16T11:20:42.755Z,0
2022-08-16T11:21:10.770Z,0
2022-08-16T11:22:52.240Z,0
2022-08-16T11:23:10.361Z,0
2022-08-16T11:24:45.540Z,0
2022-08-16T11:26:23.586Z,0
2022-08-16T11:26:26.784Z,0
2022-08-16T11:27:39.201Z,0
2022-08-16T11:28:11.057Z,0
2022-08-16T11:29:18.679Z,0
2022-08-16T11:30:13.047Z,0
2022-08-16T11:31:11.157Z,0
2022-08-16T11:32:13.851Z,0
2022-08-16T11:33:10.622Z,0
2022-08-16T11:34:11.438Z,0
2022-08-16T11:35:19.045Z,0
2022-08-16T11:36:31.808Z,0
2022-08-16T11:37:27.501Z,0
2022-08-16T11:38:59.207Z,0
2022-08-16T11:39:13.934Z,0
2022-08-16T11:40:13.549Z,0
2022-08-16T11:41:10.895Z,0
2022-08-16T11:42:37.066Z,0
2022-08-16T11:43:16.933Z,0
2022-08-16T11:44:10.608Z,0
2022-08-16T11:45:10.728Z,0
2022-08-16T11:46:48.670Z,0
2022-08-16T11:47:11.048Z,0
2022-08-16T11:48:10.543Z,0
2022-08-16T11:49:16.886Z,0
2022-08-16T11:50:11.486Z,0
2022-08-16T11:51:10.492Z,30
2022-08-16T11:52:11.237Z,48.12
2022-08-16T11:53:11.962Z,48.29
2022-08-16T11:54:33.141Z,48.74
2022-08-16T11:55:11.607Z,48.74
2022-08-16T11:56:14.867Z,48.84
2022-08-16T11:57:12.620Z,49.32
2022-08-16T11:58:10.888Z,40
2022-08-16T11:59:10.559Z,49.60
2022-08-16T12:00:50.583Z,49.55
2022-08-16T12:01:14.267Z,49.55
2022-08-16T12:02:36.164Z,40
2022-08-16T12:03:12.001Z,40
2022-08-16T12:04:10.774Z,0
2022-08-16T12:05:11.598Z,0
2022-08-16T12:06:25.448Z,0
2022-08-16T12:07:12.375Z,0
2022-08-16T12:08:10.401Z,0
2022-08-16T12:09:13.602Z,0
2022-08-16T12:10:11.353Z,0
2022-08-16T12:11:11.328Z,0
2022-08-16T12:12:10.303Z,0
2022-08-16T12:13:13.802Z,10
2022-08-16T12:14:11.045Z,40
2022-08-16T12:15:10.646Z,10
2022-08-16T12:16:13.136Z,49.18
2022-08-16T12:17:11.754Z,40
2022-08-16T12:18:12.240Z,20
2022-08-16T12:19:17.289Z,0
2022-08-16T12:20:18.646Z,0
2022-08-16T12:21:13.440Z,0
2022-08-16T12:22:23.461Z,0
2022-08-16T12:23:10.898Z,0
2022-08-16T12:24:11.125Z,0
2022-08-16T12:25:10.320Z,0
2022-08-16T12:26:13.952Z,0
2022-08-16T12:27:11.898Z,0
2022-08-16T12:28:12.479Z,0
2022-08-16T12:29:11.165Z,0
2022-08-16T12:30:26.969Z,0
2022-08-16T12:31:11.113Z,0
2022-08-16T12:32:57.594Z,0
2022-08-16T12:33:11.829Z,0
2022-08-16T12:34:11.082Z,0
2022-08-16T12:35:11.036Z,0
2022-08-16T12:36:16.583Z,30
2022-08-16T12:37:15.186Z,0
2022-08-16T12:38:48.248Z,10
2022-08-16T12:39:11.095Z,10
2022-08-16T12:40:29.375Z,10
2022-08-16T12:41:11.759Z,10
2022-08-16T12:42:10.877Z,0
2022-08-16T12:43:12.549Z,0
2022-08-16T12:44:10.920Z,0
2022-08-16T12:45:11.720Z,0
2022-08-16T12:46:12.240Z,0
2022-08-16T12:47:10.805Z,0
2022-08-16T12:48:36.544Z,20
2022-08-16T12:49:10.476Z,20
2022-08-16T12:50:15.172Z,0
2022-08-16T12:51:24.170Z,0
2022-08-16T12:52:10.992Z,0
2022-08-16T12:53:10.341Z,0
2022-08-16T12:54:10.576Z,0
2022-08-16T12:55:14.367Z,0
2022-08-16T12:56:13.390Z,0
2022-08-16T12:57:17.505Z,0
2022-08-16T12:58:53.514Z,0
2022-08-16T12:59:11.474Z,0
2022-08-16T13:00:12.103Z,0
2022-08-16T13:01:13.069Z,0
2022-08-16T13:02:22.943Z,0
2022-08-16T13:03:13.118Z,0
2022-08-16T13:04:24.804Z,0
2022-08-16T13:05:11.568Z,0
2022-08-16T13:06:12.432Z,0
2022-08-16T13:07:12.584Z,0
2022-08-16T13:08:27.505Z,0
2022-08-16T13:09:11.109Z,0
2022-08-16T13:10:37.142Z,0
2022-08-16T13:11:11.492Z,0
2022-08-16T13:12:13.232Z,0
2022-08-16T13:13:12.520Z,0
2022-08-16T13:14:30.828Z,0
2022-08-16T13:15:14.025Z,0
2022-08-16T13:16:24.959Z,0
2022-08-16T13:17:17.118Z,0
2022-08-16T13:18:34.140Z,0
2022-08-16T13:19:10.720Z,0
2022-08-16T13:20:13.143Z,0
2022-08-16T13:21:11.099Z,0
2022-08-16T13:22:19.779Z,0
2022-08-16T13:23:12.950Z,0
2022-08-16T13:24:10.860Z,10
2022-08-16T13:25:15.042Z,20
2022-08-16T13:26:11.322Z,46.11
2022-08-16T13:27:11.498Z,46.43
2022-08-16T13:28:18.724Z,46.40
2022-08-16T13:29:10.725Z,45.96
2022-08-16T13:30:41.598Z,46.03
2022-08-16T13:31:11.636Z,46.03
2022-08-16T13:32:39.468Z,46.04
2022-08-16T13:33:19.008Z,46.05
2022-08-16T13:34:13.466Z,46.07
2022-08-16T13:35:15.044Z,46.22
2022-08-16T13:37:10.954Z,46.08
2022-08-16T13:38:25.151Z,45.58
2022-08-16T13:39:11.115Z,44.79
2022-08-16T13:40:19.786Z,44.52
2022-08-16T13:41:12.228Z,44.55
2022-08-16T13:42:12.314Z,44.70
2022-08-16T13:43:14.823Z,44.88
2022-08-16T13:44:13.140Z,45.09
2022-08-16T13:45:13.353Z,45.26
2022-08-16T13:46:10.922Z,45.41
2022-08-16T13:47:10.858Z,46.04
2022-08-16T13:48:11.464Z,46.65
2022-08-16T13:49:10.508Z,47.04
2022-08-16T13:50:14.797Z,47.02
2022-08-16T13:51:10.887Z,47.02
2022-08-16T13:52:10.661Z,46.93
2022-08-16T13:53:11.542Z,47.41
2022-08-16T13:54:10.781Z,47.52
2022-08-16T13:55:21.540Z,46.18
2022-08-16T13:56:24.757Z,46.18
2022-08-16T13:57:14.940Z,46.91
2022-08-16T13:58:58.285Z,46.36
2022-08-16T13:59:23.395Z,46.11
2022-08-16T14:00:12.457Z,46.11
2022-08-16T14:01:13.837Z,46.97
2022-08-16T14:02:15.212Z,46.49
2022-08-16T14:03:12.081Z,46.93
2022-08-16T14:04:11.731Z,47.17
2022-08-16T14:05:14.632Z,47.07
2022-08-16T14:06:14.794Z,46.67
2022-08-16T14:07:11.066Z,46.25
2022-08-16T14:08:11.402Z,46.14
2022-08-16T14:09:11.162Z,46.18
2022-08-16T14:10:11.304Z,46.04
2022-08-16T14:11:15.526Z,45.80
2022-08-16T14:13:23.614Z,45.86
2022-08-16T14:14:14.833Z,45.86
2022-08-16T14:15:11.895Z,45.83
2022-08-16T14:16:24.520Z,45.85
2022-08-16T14:17:13.492Z,45.87
2022-08-16T14:18:31.097Z,46.27
2022-08-16T14:19:10.751Z,46.27
2022-08-16T14:20:22.601Z,46.02
2022-08-16T14:21:12.157Z,46.02
2022-08-16T14:22:35.845Z,45.79
2022-08-16T14:23:10.156Z,45.79
2022-08-16T14:25:16.567Z,45.72
2022-08-16T14:26:11.293Z,45.84
2022-08-16T14:27:10.999Z,45.93
2022-08-16T14:28:13.774Z,45.92
2022-08-16T14:29:12.735Z,45.79
2022-08-16T14:30:11.425Z,45.91
2022-08-16T14:31:11.869Z,46.03
2022-08-16T14:32:13.148Z,46.24
2022-08-16T14:33:11.463Z,46.34
2022-08-16T14:34:14.766Z,46.08
2022-08-16T14:35:12.892Z,45.79
2022-08-16T14:36:12.243Z,45.86
2022-08-16T14:37:11.931Z,45.87
2022-08-16T14:38:10.963Z,45.96
2022-08-16T14:39:11.188Z,46.09
2022-08-16T14:40:11.185Z,45.99
2022-08-16T14:41:14.264Z,46.06
2022-08-16T14:42:14.310Z,46.08
2022-08-16T14:43:11.566Z,46.12
2022-08-16T14:44:13.189Z,46.06
2022-08-16T14:45:11.816Z,46.05
2022-08-16T14:46:12.961Z,46.05
2022-08-16T14:47:11.586Z,45.99
2022-08-16T14:48:11.331Z,46.15